sensor_id;sensor_type;location;lat;lon;timestamp;temperature;humidity
1888;DHT22;944;51.574;6.980;2022-12-13T06:41:53;-5.10;1.00
1888;DHT22;944;51.574;6.980;2022-12-13T06:44:25;-4.90;99.90
1888;DHT22;944;51.574;6.980;2022-12-13T06:47:02;-5.10;99.90
1888;DHT22;944;51.574;6.980;2022-12-13T06:49:30;-5.10;99.90
1888;DHT22;944;51.574;6.980;2022-12-13T06:51:57;-5.20;1.00
1888;DHT22;944;51.574;6.980;2022-12-13T06:54:33;-5.20;1.00
1888;DHT22;944;51.574;6.980;2022-12-13T06:57:08;-5.20;1.00
1888;DHT22;944;51.574;6.980;2022-12-13T06:59:48;-5.20;1.00
1888;DHT22;944;51.574;6.980;2022-12-13T07:02:20;-5.20;1.00
1888;DHT22;944;51.574;6.980;2022-12-13T07:06:37;-5.20;1.00
1888;DHT22;944;51.574;6.980;2022-12-13T07:08:57;-5.20;1.00
1888;DHT22;944;51.574;6.980;2022-12-13T07:11:29;-5.30;1.00
1888;DHT22;944;51.574;6.980;2022-12-13T07:14:06;-5.20;1.00
1888;DHT22;944;51.574;6.980;2022-12-13T07:20:15;-5.50;1.00
1888;DHT22;944;51.574;6.980;2022-12-13T07:30:17;-5.30;99.90
1888;DHT22;944;51.574;6.980;2022-12-13T07:32:44;-5.20;37.60
1888;DHT22;944;51.574;6.980;2022-12-13T07:38:55;-5.30;1.00
1888;DHT22;944;51.574;6.980;2022-12-13T07:41:25;-5.30;1.00
1888;DHT22;944;51.574;6.980;2022-12-13T07:43:52;-5.30;1.00
1888;DHT22;944;51.574;6.980;2022-12-13T07:47:42;-5.30;1.00
1888;DHT22;944;51.574;6.980;2022-12-13T07:50:01;-5.30;1.00
1888;DHT22;944;51.574;6.980;2022-12-13T07:56:10;-5.20;1.00
1888;DHT22;944;51.574;6.980;2022-12-13T07:58:38;-5.10;11.90
1888;DHT22;944;51.574;6.980;2022-12-13T08:01:07;-5.20;99.90
1888;DHT22;944;51.574;6.980;2022-12-13T08:03:38;-5.20;1.00
1888;DHT22;944;51.574;6.980;2022-12-13T08:06:06;-5.10;44.70
1888;DHT22;944;51.574;6.980;2022-12-13T08:12:03;-5.00;1.00
1888;DHT22;944;51.574;6.980;2022-12-13T08:14:32;-5.00;99.90
1888;DHT22;944;51.574;6.980;2022-12-13T08:17:00;-4.90;1.00
1888;DHT22;944;51.574;6.980;2022-12-13T08:19:29;-4.90;99.90
1888;DHT22;944;51.574;6.980;2022-12-13T08:25:36;-4.80;99.90
1888;DHT22;944;51.574;6.980;2022-12-13T08:28:04;-4.90;99.90
1888;DHT22;944;51.574;6.980;2022-12-13T08:30:31;-4.90;5.50
1888;DHT22;944;51.574;6.980;2022-12-13T08:33:01;-4.80;1.00
1888;DHT22;944;51.574;6.980;2022-12-13T08:39:10;-4.60;25.70
1888;DHT22;944;51.574;6.980;2022-12-13T08:41:37;-4.40;99.90
1888;DHT22;944;51.574;6.980;2022-12-13T08:44:18;-4.20;1.00
1888;DHT22;944;51.574;6.980;2022-12-13T08:46:45;-4.30;99.90
1888;DHT22;944;51.574;6.980;2022-12-13T08:49:12;-4.30;99.90
1888;DHT22;944;51.574;6.980;2022-12-13T08:51:42;-4.20;1.00
1888;DHT22;944;51.574;6.980;2022-12-13T08:54:11;-4.10;1.00
1888;DHT22;944;51.574;6.980;2022-12-13T08:56:43;-4.00;1.00
1888;DHT22;944;51.574;6.980;2022-12-13T08:59:12;-4.00;99.90
1888;DHT22;944;51.574;6.980;2022-12-13T09:01:55;-3.90;99.90
1888;DHT22;944;51.574;6.980;2022-12-13T09:04:22;-3.80;60.00
1888;DHT22;944;51.574;6.980;2022-12-13T09:06:49;-3.80;1.00
1888;DHT22;944;51.574;6.980;2022-12-13T09:09:17;-3.70;1.00
1888;DHT22;944;51.574;6.980;2022-12-13T09:11:46;-3.70;1.00
1888;DHT22;944;51.574;6.980;2022-12-13T09:14:16;-3.60;99.90
1888;DHT22;944;51.574;6.980;2022-12-13T09:16:43;-3.60;99.90
1888;DHT22;944;51.574;6.980;2022-12-13T09:19:10;-3.50;94.30
1888;DHT22;944;51.574;6.980;2022-12-13T09:21:40;-3.40;1.00
1888;DHT22;944;51.574;6.980;2022-12-13T09:24:10;-3.30;99.90
1888;DHT22;944;51.574;6.980;2022-12-13T09:26:51;-3.30;3.40
1888;DHT22;944;51.574;6.980;2022-12-13T09:29:18;-3.20;1.00
1888;DHT22;944;51.574;6.980;2022-12-13T09:35:57;-3.10;99.90
1888;DHT22;944;51.574;6.980;2022-12-13T09:42:09;-2.90;99.90
1888;DHT22;944;51.574;6.980;2022-12-13T09:44:49;-2.80;99.90
1888;DHT22;944;51.574;6.980;2022-12-13T09:47:35;-2.80;99.90
1888;DHT22;944;51.574;6.980;2022-12-13T09:54:11;-2.70;99.90
1888;DHT22;944;51.574;6.980;2022-12-13T09:56:57;-2.60;32.60
1888;DHT22;944;51.574;6.980;2022-12-13T09:59:28;-2.60;1.00
1888;DHT22;944;51.574;6.980;2022-12-13T10:02:02;-2.60;1.00
1888;DHT22;944;51.574;6.980;2022-12-13T10:04:34;-2.50;1.00
1888;DHT22;944;51.574;6.980;2022-12-13T10:07:04;-2.40;99.90
1888;DHT22;944;51.574;6.980;2022-12-13T10:09:51;-2.40;1.00
1888;DHT22;944;51.574;6.980;2022-12-13T10:12:27;-2.30;99.90
1888;DHT22;944;51.574;6.980;2022-12-13T10:18:24;-2.20;99.90
1888;DHT22;944;51.574;6.980;2022-12-13T10:20:54;-2.10;59.90
1888;DHT22;944;51.574;6.980;2022-12-13T10:53:50;-1.70;99.90
1888;DHT22;944;51.574;6.980;2022-12-13T12:39:14;-0.70;99.90
1888;DHT22;944;51.574;6.980;2022-12-13T12:42:29;-0.80;99.90
1888;DHT22;944;51.574;6.980;2022-12-13T12:45:31;-0.80;99.90
1888;DHT22;944;51.574;6.980;2022-12-13T12:48:22;-0.80;99.90
1888;DHT22;944;51.574;6.980;2022-12-13T12:54:32;-0.90;99.90
1888;DHT22;944;51.574;6.980;2022-12-13T12:57:22;-0.90;99.90
1888;DHT22;944;51.574;6.980;2022-12-13T13:00:51;-0.90;99.90
1888;DHT22;944;51.574;6.980;2022-12-13T13:03:44;-0.90;99.90
1888;DHT22;944;51.574;6.980;2022-12-13T13:06:36;-1.00;99.90
1888;DHT22;944;51.574;6.980;2022-12-13T13:09:15;-0.90;99.90
1888;DHT22;944;51.574;6.980;2022-12-13T13:12:06;-1.00;60.60
1888;DHT22;944;51.574;6.980;2022-12-13T13:14:36;-1.00;99.90
1888;DHT22;944;51.574;6.980;2022-12-13T13:17:44;-0.90;38.30
1888;DHT22;944;51.574;6.980;2022-12-13T13:20:29;-0.90;1.00
1888;DHT22;944;51.574;6.980;2022-12-13T13:26:11;-0.70;1.00
1888;DHT22;944;51.574;6.980;2022-12-13T13:28:39;-0.70;1.00
1888;DHT22;944;51.574;6.980;2022-12-13T13:31:09;-0.60;1.00
1888;DHT22;944;51.574;6.980;2022-12-13T13:33:45;-0.60;1.00
1888;DHT22;944;51.574;6.980;2022-12-13T14:09:58;-0.50;1.00
1888;DHT22;944;51.574;6.980;2022-12-13T14:17:04;-0.60;1.00
1888;DHT22;944;51.574;6.980;2022-12-13T14:27:42;-0.70;1.00
1888;DHT22;944;51.574;6.980;2022-12-13T14:30:19;-0.70;1.00
1888;DHT22;944;51.574;6.980;2022-12-13T14:32:52;-0.70;1.00
1888;DHT22;944;51.574;6.980;2022-12-13T14:35:24;-0.70;1.00
1888;DHT22;944;51.574;6.980;2022-12-13T14:37:57;-0.70;1.00
